createdAt,value
2023-02-11T00:01:20.099Z,6.42
2023-02-11T00:06:24.667Z,6.45
2023-02-11T00:11:27.673Z,6.17
2023-02-11T00:16:29.601Z,6.14
2023-02-11T00:21:31.275Z,5.94
2023-02-11T00:26:35.224Z,5.98
2023-02-11T00:31:36.864Z,5.97
2023-02-11T00:36:40.911Z,5.87
2023-02-11T00:41:42.581Z,5.82
2023-02-11T00:46:44.552Z,5.88
2023-02-11T00:51:46.472Z,5.84
2023-02-11T00:56:48.129Z,5.83
2023-02-11T01:01:49.744Z,5.86
2023-02-11T01:06:51.371Z,5.79
2023-02-11T01:11:53.229Z,6.45
2023-02-11T01:16:54.887Z,6.85
2023-02-11T01:21:56.592Z,7.52
2023-02-11T01:26:58.257Z,7.91
2023-02-11T01:32:01.155Z,8.07
2023-02-11T01:37:02.866Z,8.05
2023-02-11T01:42:04.622Z,8.09
2023-02-11T01:47:06.358Z,7.89
2023-02-11T01:52:25.483Z,8.05
2023-02-11T01:57:32.503Z,8.04
2023-02-11T02:02:46.545Z,8.24
2023-02-11T02:07:59.119Z,8.35
2023-02-11T02:13:00.705Z,8.30
2023-02-11T02:18:09.966Z,8.31
2023-02-11T02:23:31.063Z,8.19
2023-02-11T02:28:44.854Z,8.17
2023-02-11T02:34:09.534Z,8.14
2023-02-11T02:39:18.124Z,7.94
2023-02-11T02:44:20.635Z,7.98
2023-02-11T02:49:22.224Z,8.04
2023-02-11T02:54:41.956Z,7.95
2023-02-11T03:00:02.865Z,7.80
2023-02-11T03:05:12.653Z,7.50
2023-02-11T03:10:20.695Z,7.57
2023-02-11T03:15:24.858Z,7.39
2023-02-11T03:20:29.649Z,7.44
2023-02-11T03:25:38.981Z,7.29
2023-02-11T03:30:47.372Z,7.47
2023-02-11T03:35:55.597Z,7.54
2023-02-11T03:40:59.552Z,7.54
2023-02-11T03:46:03.015Z,7.46
2023-02-11T03:51:08.170Z,7.50
2023-02-11T03:56:15.363Z,7.46
2023-02-11T04:01:17.075Z,7.26
2023-02-11T04:06:18.658Z,7.27
2023-02-11T04:11:20.295Z,7.23
2023-02-11T04:16:22.188Z,7.36
2023-02-11T04:21:24.234Z,7.41
2023-02-11T04:26:25.735Z,7.53
2023-02-11T04:31:27.423Z,7.62
2023-02-11T04:36:29.086Z,7.52
2023-02-11T04:41:30.638Z,7.68
2023-02-11T04:46:32.344Z,7.67
2023-02-11T04:51:34.088Z,7.60
2023-02-11T04:56:35.626Z,7.77
2023-02-11T05:01:37.262Z,7.62
2023-02-11T05:06:39.395Z,7.65
2023-02-11T05:11:41.029Z,7.70
2023-02-11T05:16:42.638Z,7.77
2023-02-11T05:22:00.196Z,7.65
2023-02-11T05:27:03.271Z,7.67
2023-02-11T05:32:04.831Z,7.62
2023-02-11T05:37:06.514Z,7.63
2023-02-11T05:42:08.113Z,7.63
2023-02-11T05:47:09.665Z,7.71
2023-02-11T05:52:11.372Z,7.64
2023-02-11T05:57:13.605Z,7.74
2023-02-11T06:02:15.253Z,7.63
2023-02-11T06:07:17.046Z,7.82
2023-02-11T06:12:18.994Z,7.69
2023-02-11T06:17:20.649Z,7.77
2023-02-11T06:22:22.246Z,7.74
2023-02-11T06:27:24.016Z,7.62
2023-02-11T06:32:45.221Z,7.70
2023-02-11T06:37:47.340Z,7.68
2023-02-11T06:42:48.856Z,7.79
2023-02-11T06:47:51.875Z,7.75
2023-02-11T06:52:53.551Z,7.68
2023-02-11T06:57:55.186Z,7.88
2023-02-11T07:02:56.918Z,7.80
2023-02-11T07:07:58.599Z,7.81
2023-02-11T07:13:00.178Z,7.48
2023-02-11T07:18:01.884Z,7.54
2023-02-11T07:23:03.443Z,7.07
2023-02-11T07:28:05.281Z,7.25
2023-02-11T07:33:06.992Z,7.68
2023-02-11T07:38:08.534Z,7.84
2023-02-11T07:43:10.034Z,7.79
2023-02-11T07:48:11.563Z,7.78
2023-02-11T07:53:13.309Z,7.79
2023-02-11T07:58:14.848Z,7.81
2023-02-11T08:03:16.486Z,7.67
2023-02-11T08:08:18.273Z,7.58
2023-02-11T08:13:20.095Z,7.69
2023-02-11T08:18:21.646Z,7.72
2023-02-11T08:23:23.302Z,7.90
2023-02-11T08:28:25.044Z,7.94
2023-02-11T08:33:26.779Z,8.03
2023-02-11T08:38:28.381Z,7.93
2023-02-11T08:43:30.382Z,8.29
2023-02-11T08:48:32.045Z,8.18
2023-02-11T08:53:34.158Z,8.03
2023-02-11T08:58:35.775Z,8.08
2023-02-11T09:03:37.589Z,8.08
2023-02-11T09:08:42.176Z,8.15
2023-02-11T09:13:45.434Z,8.08
2023-02-11T09:18:47.857Z,8.33
2023-02-11T09:23:49.660Z,8.26
2023-02-11T09:28:51.861Z,8.19
2023-02-11T09:33:56.123Z,8.34
2023-02-11T09:39:00.627Z,8.39
2023-02-11T09:44:06.111Z,8.56
2023-02-11T09:49:15.725Z,8.58
2023-02-11T09:54:42.330Z,8.79
2023-02-11T09:59:43.959Z,8.82
2023-02-11T10:04:45.715Z,8.93
2023-02-11T10:10:00.945Z,8.82
2023-02-11T10:15:08.525Z,8.85
2023-02-11T10:20:32.967Z,8.84
2023-02-11T10:25:45.151Z,8.89
2023-02-11T10:31:11.008Z,9.03
2023-02-11T10:36:14.799Z,9.23
2023-02-11T10:41:21.326Z,9.23
2023-02-11T10:46:29.359Z,9.22
2023-02-11T10:51:33.152Z,9.27
2023-02-11T10:56:37.937Z,9.19
2023-02-11T11:01:57.212Z,9.18
2023-02-11T11:07:29.481Z,9.11
2023-02-11T11:12:33.148Z,9.24
2023-02-11T11:17:34.940Z,9.15
2023-02-11T11:22:36.676Z,9.25
2023-02-11T11:27:38.880Z,9.34
2023-02-11T11:32:42.201Z,9.42
2023-02-11T11:37:44.105Z,9.49
2023-02-11T11:42:45.879Z,9.63
2023-02-11T11:47:50.360Z,9.65
2023-02-11T11:53:05.598Z,9.65
2023-02-11T11:58:15.291Z,9.78
2023-02-11T12:03:42.015Z,9.81
2023-02-11T12:09:34.314Z,9.88
2023-02-11T12:14:41.696Z,10.02
2023-02-11T12:20:12.894Z,9.96
2023-02-11T12:25:17.166Z,9.92
2023-02-11T12:30:43.524Z,9.74
2023-02-11T12:35:50.979Z,9.76
2023-02-11T12:41:02.273Z,9.78
2023-02-11T12:46:34.082Z,9.43
2023-02-11T12:51:57.400Z,9.39
2023-02-11T12:57:20.637Z,9.49
2023-02-11T13:02:30.545Z,9.40
2023-02-11T13:07:39.860Z,9.57
2023-02-11T13:12:45.148Z,9.59
2023-02-11T13:17:54.798Z,9.61
2023-02-11T13:23:10.661Z,9.59
2023-02-11T13:28:27.402Z,9.46
2023-02-11T13:33:39.853Z,9.51
2023-02-11T13:38:51.232Z,9.58
2023-02-11T13:44:00.108Z,9.57
2023-02-11T13:49:01.897Z,9.69
2023-02-11T13:54:05.270Z,9.51
2023-02-11T13:59:26.792Z,9.55
2023-02-11T14:04:28.628Z,9.86
2023-02-11T14:09:34.778Z,9.95
2023-02-11T14:15:07.775Z,9.88
2023-02-11T14:20:36.230Z,9.79
2023-02-11T14:25:41.548Z,9.83
2023-02-11T14:30:51.573Z,9.91
2023-02-11T14:36:02.389Z,9.96
2023-02-11T14:41:24.636Z,9.89
2023-02-11T14:46:28.462Z,10.02
2023-02-11T14:51:38.460Z,9.96
2023-02-11T14:56:40.128Z,10.21
2023-02-11T15:01:42.327Z,10.07
2023-02-11T15:06:48.018Z,10.02
2023-02-11T15:11:51.601Z,10.13
2023-02-11T15:16:56.440Z,9.94
2023-02-11T15:21:59.392Z,9.95
2023-02-11T15:27:13.841Z,10.06
2023-02-11T15:32:19.913Z,10.22
2023-02-11T15:37:24.674Z,10.23
2023-02-11T15:42:35.857Z,10.07
2023-02-11T15:47:49.385Z,10.24
2023-02-11T15:52:52.346Z,10.09
2023-02-11T15:57:57.371Z,10.25
2023-02-11T16:02:59.096Z,10.19
2023-02-11T16:08:12.640Z,10.16
2023-02-11T16:13:14.169Z,10.06
2023-02-11T16:18:39.882Z,9.96
2023-02-11T16:23:42.632Z,9.94
2023-02-11T16:28:44.262Z,9.87
2023-02-11T16:33:45.968Z,9.91
2023-02-11T16:38:47.613Z,9.85
2023-02-11T16:43:49.196Z,9.82
2023-02-11T16:48:51.339Z,9.81
2023-02-11T16:53:53.986Z,9.80
2023-02-11T16:58:55.563Z,9.79
2023-02-11T17:03:57.206Z,9.77
2023-02-11T17:08:58.895Z,9.80
2023-02-11T17:14:00.458Z,9.81
2023-02-11T17:19:02.032Z,9.82
2023-02-11T17:24:03.817Z,9.77
2023-02-11T17:29:10.128Z,9.75
2023-02-11T17:34:12.174Z,9.71
2023-02-11T17:39:17.436Z,9.61
2023-02-11T17:44:19.100Z,9.58
2023-02-11T17:49:20.626Z,9.50
2023-02-11T17:54:22.365Z,9.50
2023-02-11T17:59:23.916Z,9.46
2023-02-11T18:04:25.526Z,9.49
2023-02-11T18:09:27.159Z,9.46
2023-02-11T18:14:28.783Z,9.35
2023-02-11T18:19:30.373Z,9.23
2023-02-11T18:24:32.013Z,9.20
2023-02-11T18:29:33.867Z,9.21
2023-02-11T18:34:35.434Z,9.29
2023-02-11T18:39:37.318Z,9.26
2023-02-11T18:44:38.882Z,9.26
2023-02-11T18:49:40.517Z,9.10
2023-02-11T18:54:42.179Z,8.96
2023-02-11T18:59:43.720Z,8.99
2023-02-11T19:04:45.470Z,9.02
2023-02-11T19:09:47.088Z,9.05
2023-02-11T19:14:48.628Z,9.04
2023-02-11T19:19:50.326Z,8.88
2023-02-11T19:24:51.853Z,8.77
2023-02-11T19:29:53.439Z,8.66
2023-02-11T19:34:55.042Z,8.70
2023-02-11T19:39:56.612Z,8.80
2023-02-11T19:44:58.193Z,8.81
2023-02-11T19:49:59.851Z,8.81
2023-02-11T19:55:01.551Z,8.95
2023-02-11T20:00:04.975Z,9.00
2023-02-11T20:05:13.394Z,9.00
2023-02-11T20:10:15.140Z,8.98
2023-02-11T20:15:16.929Z,9.05
2023-02-11T20:20:18.580Z,9.09
2023-02-11T20:25:20.149Z,9.10
2023-02-11T20:30:21.768Z,9.15
2023-02-11T20:35:23.298Z,9.21
2023-02-11T20:40:24.879Z,8.85
2023-02-11T20:45:38.204Z,8.65
2023-02-11T20:50:40.281Z,8.75
2023-02-11T20:55:42.111Z,8.87
2023-02-11T21:00:43.759Z,8.68
2023-02-11T21:05:45.334Z,8.69
2023-02-11T21:10:48.079Z,8.67
2023-02-11T21:15:56.682Z,8.70
2023-02-11T21:21:00.939Z,8.68
2023-02-11T21:26:02.629Z,8.55
2023-02-11T21:31:05.036Z,8.56
2023-02-11T21:36:07.171Z,8.39
2023-02-11T21:41:09.187Z,8.34
2023-02-11T21:46:13.586Z,8.29
2023-02-11T21:51:19.091Z,8.32
2023-02-11T21:56:20.782Z,8.32
2023-02-11T22:01:25.652Z,8.33
2023-02-11T22:06:30.622Z,8.26
2023-02-11T22:11:32.307Z,8.33
2023-02-11T22:16:33.973Z,8.33
2023-02-11T22:21:35.548Z,8.32
2023-02-11T22:26:37.194Z,8.37
2023-02-11T22:31:39.050Z,8.37
2023-02-11T22:36:41.631Z,8.38
2023-02-11T22:41:44.866Z,8.41
2023-02-11T22:46:46.579Z,8.39
2023-02-11T22:51:48.601Z,8.42
2023-02-11T22:56:51.363Z,8.40
2023-02-11T23:01:53.174Z,8.41
2023-02-11T23:06:54.980Z,8.30
2023-02-11T23:11:56.929Z,8.07
2023-02-11T23:16:58.575Z,7.94
2023-02-11T23:22:00.374Z,7.78
2023-02-11T23:27:02.043Z,7.77
2023-02-11T23:32:03.789Z,7.84
2023-02-11T23:37:05.594Z,7.81
2023-02-11T23:42:07.185Z,7.87
2023-02-11T23:47:08.824Z,7.95
2023-02-11T23:52:10.526Z,8.02
2023-02-11T23:57:12.287Z,8.10
